createdAt,value
2023-03-14T00:01:21.325Z,10.44
2023-03-14T00:03:48.951Z,10.29
2023-03-14T00:06:16.724Z,10.66
2023-03-14T00:08:45.488Z,9.82
2023-03-14T00:11:18.827Z,9.81
2023-03-14T00:13:49.387Z,9.74
2023-03-14T00:16:16.345Z,9.58
2023-03-14T00:18:43.208Z,9.82
2023-03-14T00:21:12.159Z,10.23
2023-03-14T00:23:40.837Z,10.22
2023-03-14T00:26:10.868Z,10.34
2023-03-14T00:28:42.542Z,10.75
2023-03-14T00:31:12.794Z,10.72
2023-03-14T00:33:42.158Z,9.87
2023-03-14T00:36:13.129Z,10.44
2023-03-14T00:38:41.911Z,10.11
2023-03-14T00:41:11.785Z,9.79
2023-03-14T00:43:39.161Z,10.15
2023-03-14T00:46:07.323Z,9.58
2023-03-14T00:48:34.457Z,8.82
2023-03-14T00:51:02.312Z,8.49
2023-03-14T00:53:29.106Z,8.55
2023-03-14T00:55:56.558Z,8.43
2023-03-14T00:58:23.514Z,8.39
2023-03-14T01:00:50.820Z,8.61
2023-03-14T01:03:18.137Z,8.93
2023-03-14T01:05:46.665Z,9.41
2023-03-14T01:08:13.498Z,10.06
2023-03-14T01:10:41.702Z,10.54
2023-03-14T01:13:10.013Z,10.08
2023-03-14T01:15:39.162Z,9.66
2023-03-14T01:18:10.776Z,9.30
2023-03-14T01:20:38.631Z,9.16
2023-03-14T01:23:09.776Z,8.71
2023-03-14T01:25:42.197Z,8.28
2023-03-14T01:28:09.690Z,8.51
2023-03-14T01:30:36.521Z,8.72
2023-03-14T01:33:03.663Z,8.59
2023-03-14T01:35:32.267Z,8.75
2023-03-14T01:38:01.329Z,8.52
2023-03-14T01:40:28.361Z,8.77
2023-03-14T01:42:58.789Z,8.74
2023-03-14T01:46:03.771Z,9.05
2023-03-14T01:48:37.197Z,9.29
2023-03-14T01:51:12.151Z,9.32
2023-03-14T01:53:42.675Z,9.92
2023-03-14T01:56:14.885Z,10.20
2023-03-14T01:58:46.364Z,10.45
2023-03-14T02:01:15.826Z,10.81
2023-03-14T02:03:58.015Z,10.73
2023-03-14T02:06:41.945Z,10.05
2023-03-14T02:09:08.899Z,9.76
2023-03-14T02:11:36.702Z,9.51
2023-03-14T02:14:31.190Z,9.46
2023-03-14T02:17:20.465Z,9.28
2023-03-14T02:20:29.187Z,8.92
2023-03-14T02:22:59.520Z,8.76
2023-03-14T02:25:45.439Z,9.13
2023-03-14T02:28:13.097Z,9.09
2023-03-14T02:30:40.591Z,9.09
2023-03-14T02:33:14.782Z,9.22
2023-03-14T02:36:00.049Z,9.52
2023-03-14T02:39:04.628Z,9.71
2023-03-14T02:41:33.137Z,9.78
2023-03-14T02:44:04.617Z,9.33
2023-03-14T02:46:35.263Z,9.87
2023-03-14T02:49:08.679Z,9.96
2023-03-14T02:51:39.147Z,10.42
2023-03-14T02:54:06.762Z,10.77
2023-03-14T02:56:33.780Z,11.13
2023-03-14T02:59:06.420Z,11.31
2023-03-14T03:01:43.229Z,11.25
2023-03-14T03:04:10.143Z,11.25
2023-03-14T03:06:37.113Z,11.17
2023-03-14T03:09:04.780Z,10.71
2023-03-14T03:11:32.855Z,9.71
2023-03-14T03:14:02.691Z,9.06
2023-03-14T03:16:32.175Z,8.77
2023-03-14T03:19:00.977Z,8.84
2023-03-14T03:21:28.076Z,9.07
2023-03-14T03:23:55.337Z,8.76
2023-03-14T03:26:22.318Z,8.75
2023-03-14T03:28:56.701Z,8.54
2023-03-14T03:31:24.680Z,8.25
2023-03-14T03:33:52.223Z,8.45
2023-03-14T03:36:23.833Z,8.69
2023-03-14T03:38:51.708Z,9.37
2023-03-14T03:41:19.310Z,8.97
2023-03-14T03:43:51.786Z,9.04
2023-03-14T03:46:19.806Z,8.66
2023-03-14T03:48:47.088Z,8.86
2023-03-14T03:51:15.742Z,9.00
2023-03-14T03:53:43.629Z,8.90
2023-03-14T03:56:13.487Z,8.64
2023-03-14T03:58:45.280Z,9.03
2023-03-14T04:01:12.359Z,9.13
2023-03-14T04:03:41.632Z,9.32
2023-03-14T04:06:12.261Z,9.26
2023-03-14T04:08:41.935Z,9.69
2023-03-14T04:11:18.326Z,9.14
2023-03-14T04:13:56.174Z,9.56
2023-03-14T04:16:27.653Z,9.57
2023-03-14T04:19:03.535Z,9.53
2023-03-14T04:21:32.386Z,9.46
2023-03-14T04:24:01.111Z,9.57
2023-03-14T04:26:32.253Z,10.06
2023-03-14T04:28:59.920Z,10.69
2023-03-14T04:31:27.785Z,9.81
2023-03-14T04:33:55.688Z,9.29
2023-03-14T04:36:32.796Z,9.43
2023-03-14T04:39:05.278Z,9.11
2023-03-14T04:41:41.241Z,9.32
2023-03-14T04:44:11.154Z,9.46
2023-03-14T04:46:38.208Z,8.75
2023-03-14T04:49:07.466Z,8.80
2023-03-14T04:51:34.586Z,9.18
2023-03-14T04:54:01.964Z,9.72
2023-03-14T04:56:29.724Z,9.90
2023-03-14T04:58:57.470Z,10.12
2023-03-14T05:01:27.118Z,10.09
2023-03-14T05:04:16.179Z,10.11
2023-03-14T05:06:53.089Z,10.22
2023-03-14T05:09:29.458Z,10.01
2023-03-14T05:12:15.662Z,10.12
2023-03-14T05:15:01.708Z,10.04
2023-03-14T05:17:50.396Z,8.87
2023-03-14T05:20:46.457Z,8.56
2023-03-14T05:23:41.201Z,8.79
2023-03-14T05:26:34.306Z,9.05
2023-03-14T05:29:21.544Z,9.18
2023-03-14T05:32:27.087Z,8.72
2023-03-14T05:35:03.674Z,8.32
2023-03-14T05:37:44.206Z,8.28
2023-03-14T05:40:31.499Z,8.42
2023-03-14T05:43:14.548Z,8.58
2023-03-14T05:45:58.676Z,8.86
2023-03-14T05:48:35.048Z,8.90
2023-03-14T05:51:17.544Z,8.75
2023-03-14T05:54:04.355Z,9.26
2023-03-14T05:57:01.370Z,9.16
2023-03-14T05:59:47.445Z,9.54
2023-03-14T06:02:35.394Z,9.33
2023-03-14T06:05:13.724Z,9.44
2023-03-14T06:07:42.073Z,9.74
2023-03-14T06:10:12.510Z,9.82
2023-03-14T06:12:41.246Z,10.35
2023-03-14T06:15:09.133Z,10.51
2023-03-14T06:17:38.837Z,9.61
2023-03-14T06:20:13.031Z,9.79
2023-03-14T06:22:41.511Z,9.99
2023-03-14T06:25:09.904Z,9.62
2023-03-14T06:27:37.549Z,10.08
2023-03-14T06:30:08.432Z,9.77
2023-03-14T06:32:35.813Z,9.62
2023-03-14T06:35:08.200Z,9.69
2023-03-14T06:37:38.582Z,9.72
2023-03-14T06:40:10.550Z,9.80
2023-03-14T06:42:50.147Z,10.03
2023-03-14T06:45:18.174Z,10.63
2023-03-14T06:47:46.470Z,10.60
2023-03-14T06:50:13.985Z,9.82
2023-03-14T06:52:47.180Z,10.13
2023-03-14T06:55:21.261Z,9.74
2023-03-14T06:57:50.374Z,10.10
2023-03-14T07:00:23.266Z,10.01
2023-03-14T07:02:55.231Z,9.78
2023-03-14T07:05:29.057Z,10.09
2023-03-14T07:08:00.142Z,9.78
2023-03-14T07:10:28.028Z,9.96
2023-03-14T07:12:55.755Z,10.27
2023-03-14T07:15:28.039Z,10.12
2023-03-14T07:18:03.258Z,10.22
2023-03-14T07:20:35.833Z,10.08
2023-03-14T07:23:04.547Z,9.96
2023-03-14T07:25:46.789Z,10.43
2023-03-14T07:28:16.902Z,9.98
2023-03-14T07:30:53.611Z,9.45
2023-03-14T07:33:31.841Z,9.40
2023-03-14T07:36:01.517Z,9.63
2023-03-14T07:38:34.312Z,9.73
2023-03-14T07:41:35.326Z,9.68
2023-03-14T07:44:25.053Z,9.88
2023-03-14T07:46:53.454Z,9.93
2023-03-14T07:49:21.056Z,9.95
2023-03-14T07:51:51.549Z,10.33
2023-03-14T07:54:20.918Z,10.35
2023-03-14T07:56:48.569Z,10.42
2023-03-14T07:59:16.712Z,10.87
2023-03-14T08:01:44.500Z,10.25
2023-03-14T08:04:12.793Z,10.28
2023-03-14T08:06:42.815Z,10.79
2023-03-14T08:09:12.208Z,10.62
2023-03-14T08:11:40.259Z,10.58
2023-03-14T08:14:07.488Z,10.56
2023-03-14T08:16:34.843Z,10.53
2023-03-14T08:19:02.610Z,10.51
2023-03-14T08:21:30.043Z,10.29
2023-03-14T08:23:57.896Z,10.40
2023-03-14T08:26:25.310Z,10.56
2023-03-14T08:28:56.302Z,10.27
2023-03-14T08:31:23.937Z,10.58
2023-03-14T08:33:53.135Z,9.90
2023-03-14T08:36:23.827Z,9.96
2023-03-14T08:38:51.128Z,10.03
2023-03-14T08:41:18.188Z,9.98
2023-03-14T08:43:45.753Z,9.80
2023-03-14T08:46:13.041Z,10.34
2023-03-14T08:48:41.523Z,10.29
2023-03-14T08:51:15.567Z,10.55
2023-03-14T08:53:43.310Z,10.52
2023-03-14T08:56:14.166Z,9.87
2023-03-14T08:58:47.876Z,10.42
2023-03-14T09:01:15.739Z,10.13
2023-03-14T09:03:43.853Z,10.09
2023-03-14T09:06:17.887Z,10.59
2023-03-14T09:08:48.943Z,9.96
2023-03-14T09:11:20.152Z,10.08
2023-03-14T09:13:48.190Z,9.91
2023-03-14T09:16:19.337Z,10.15
2023-03-14T09:18:47.591Z,10.61
2023-03-14T09:21:14.822Z,10.40
2023-03-14T09:23:43.285Z,10.40
2023-03-14T09:26:11.333Z,10.24
2023-03-14T09:28:38.772Z,10.35
2023-03-14T09:31:10.969Z,10.26
2023-03-14T09:33:38.539Z,10.12
2023-03-14T09:36:09.449Z,10.36
2023-03-14T09:38:38.445Z,10.27
2023-03-14T09:41:19.055Z,10.58
2023-03-14T09:43:54.346Z,10.05
2023-03-14T09:46:29.218Z,11.09
2023-03-14T09:48:56.281Z,11.23
2023-03-14T09:51:24.800Z,10.45
2023-03-14T09:53:54.374Z,10.39
2023-03-14T09:56:28.209Z,10.34
2023-03-14T09:59:02.096Z,10.63
2023-03-14T10:01:32.990Z,11.02
2023-03-14T10:04:08.051Z,10.71
2023-03-14T10:06:36.295Z,10.08
2023-03-14T10:09:06.183Z,10.64
2023-03-14T10:11:33.042Z,10.64
2023-03-14T10:14:10.030Z,10.91
2023-03-14T10:16:43.097Z,11.12
2023-03-14T10:19:22.118Z,10.45
2023-03-14T10:21:54.532Z,10.41
2023-03-14T10:24:26.094Z,10.71
2023-03-14T10:26:59.616Z,10.74
2023-03-14T10:29:27.547Z,10.93
2023-03-14T10:32:06.193Z,10.70
2023-03-14T10:34:41.034Z,10.85
2023-03-14T10:37:27.287Z,10.34
2023-03-14T10:40:07.244Z,10.17
2023-03-14T10:42:48.418Z,10.55
2023-03-14T10:45:40.812Z,10.15
2023-03-14T10:48:21.972Z,10.36
2023-03-14T10:50:55.614Z,10.98
2023-03-14T10:53:25.945Z,10.42
2023-03-14T10:55:57.076Z,10.73
2023-03-14T10:58:34.922Z,10.63
2023-03-14T11:01:21.602Z,10.33
2023-03-14T11:03:57.852Z,10.51
2023-03-14T11:06:33.481Z,10.26
2023-03-14T11:09:10.737Z,10.13
2023-03-14T11:11:41.103Z,10.26
2023-03-14T11:14:42.375Z,10.22
2023-03-14T11:17:32.364Z,10.10
2023-03-14T11:20:21.706Z,10.18
2023-03-14T11:23:09.162Z,10.41
2023-03-14T11:25:52.549Z,10.62
2023-03-14T11:28:41.519Z,10.61
2023-03-14T11:31:37.606Z,10.38
2023-03-14T11:34:19.772Z,10.53
2023-03-14T11:37:01.981Z,10.83
2023-03-14T11:39:41.314Z,10.95
2023-03-14T11:42:14.351Z,10.75
2023-03-14T11:44:49.903Z,10.38
2023-03-14T11:47:39.036Z,10.80
2023-03-14T11:50:27.734Z,10.64
2023-03-14T11:53:06.024Z,10.63
2023-03-14T11:55:37.935Z,10.36
2023-03-14T11:58:14.053Z,10.56
2023-03-14T12:00:43.382Z,10.66
2023-03-14T12:03:25.764Z,10.67
2023-03-14T12:06:07.493Z,10.37
2023-03-14T12:09:01.254Z,10.28
2023-03-14T12:11:52.552Z,10.13
2023-03-14T12:14:32.153Z,10.04
2023-03-14T12:17:24.973Z,10.24
2023-03-14T12:20:22.813Z,10.51
2023-03-14T12:23:12.507Z,10.09
2023-03-14T12:25:43.486Z,10.17
2023-03-14T12:28:23.059Z,10.31
2023-03-14T12:30:50.397Z,10.28
2023-03-14T12:33:18.925Z,10.07
2023-03-14T12:36:07.259Z,10.27
2023-03-14T12:38:37.286Z,10.78
2023-03-14T12:41:07.239Z,11.07
2023-03-14T12:43:38.513Z,10.87
2023-03-14T12:46:18.664Z,10.44
2023-03-14T12:48:57.003Z,10.68
2023-03-14T12:52:01.125Z,10.98
2023-03-14T12:54:44.477Z,10.98
2023-03-14T12:57:49.689Z,10.69
2023-03-14T13:00:21.286Z,10.93
2023-03-14T13:02:50.984Z,10.53
2023-03-14T13:05:26.697Z,10.48
2023-03-14T13:08:02.330Z,10.41
2023-03-14T13:10:48.368Z,10.81
2023-03-14T13:13:21.933Z,10.92
2023-03-14T13:16:02.296Z,10.96
2023-03-14T13:18:42.184Z,11.22
2023-03-14T13:21:28.209Z,11.21
2023-03-14T13:23:59.410Z,11.29
2023-03-14T13:26:50.018Z,11.34
2023-03-14T13:29:19.073Z,11.28
2023-03-14T13:31:49.744Z,10.98
2023-03-14T13:34:22.199Z,10.88
2023-03-14T13:36:57.392Z,10.92
2023-03-14T13:39:27.487Z,10.56
2023-03-14T13:45:20.831Z,10.84
2023-03-14T13:47:53.298Z,10.60
2023-03-14T13:50:23.242Z,10.71
2023-03-14T13:52:58.438Z,10.57
2023-03-14T13:55:26.596Z,10.68
2023-03-14T13:58:05.246Z,10.58
2023-03-14T14:00:34.497Z,10.48
2023-03-14T14:03:02.337Z,10.20
2023-03-14T14:05:32.547Z,10.14
2023-03-14T14:08:00.370Z,10.31
2023-03-14T14:10:30.939Z,10.60
2023-03-14T14:13:06.498Z,10.26
2023-03-14T14:15:38.330Z,10.57
2023-03-14T14:18:12.490Z,10.39
2023-03-14T14:20:47.524Z,10.54
2023-03-14T14:23:15.730Z,10.38
2023-03-14T14:25:47.467Z,10.27
2023-03-14T14:28:39.520Z,10.15
2023-03-14T14:31:16.400Z,10.70
2023-03-14T14:33:48.456Z,10.72
2023-03-14T14:36:26.479Z,10.45
2023-03-14T14:39:06.583Z,10.17
2023-03-14T14:41:40.859Z,10.60
2023-03-14T14:44:14.418Z,10.21
2023-03-14T14:46:43.584Z,10.37
2023-03-14T14:49:15.405Z,10.51
2023-03-14T14:51:49.126Z,10.66
2023-03-14T14:54:35.235Z,10.75
2023-03-14T14:57:07.275Z,10.70
2023-03-14T14:59:44.924Z,10.38
2023-03-14T15:02:33.940Z,10.19
2023-03-14T15:05:02.079Z,9.97
2023-03-14T15:07:29.648Z,10.04
2023-03-14T15:09:57.489Z,10.33
2023-03-14T15:12:26.133Z,10.43
2023-03-14T15:14:53.361Z,10.38
2023-03-14T15:17:23.309Z,10.01
2023-03-14T15:19:50.391Z,10.24
2023-03-14T15:22:17.408Z,10.33
2023-03-14T15:24:45.228Z,10.26
2023-03-14T15:27:16.352Z,10.33
2023-03-14T15:29:43.475Z,9.92
2023-03-14T15:32:15.278Z,9.79
2023-03-14T15:34:44.049Z,9.57
2023-03-14T15:37:18.385Z,9.73
2023-03-14T15:39:47.567Z,9.52
2023-03-14T15:42:18.104Z,9.52
2023-03-14T15:44:46.098Z,9.71
2023-03-14T15:47:13.224Z,9.64
2023-03-14T15:49:40.727Z,9.60
2023-03-14T15:52:09.899Z,9.42
2023-03-14T15:54:36.858Z,9.32
2023-03-14T15:57:04.554Z,9.25
2023-03-14T15:59:32.742Z,9.03
2023-03-14T16:01:59.940Z,9.27
2023-03-14T16:04:30.327Z,9.72
2023-03-14T16:06:57.580Z,9.93
2023-03-14T16:09:25.905Z,9.48
2023-03-14T16:11:53.477Z,9.93
2023-03-14T16:14:20.435Z,9.86
2023-03-14T16:16:54.097Z,9.63
2023-03-14T16:19:21.464Z,9.59
2023-03-14T16:21:51.732Z,9.79
2023-03-14T16:24:19.955Z,9.73
2023-03-14T16:26:49.960Z,9.56
2023-03-14T16:29:17.216Z,9.30
2023-03-14T16:31:44.967Z,9.27
2023-03-14T16:34:12.953Z,8.87
2023-03-14T16:36:40.058Z,8.99
2023-03-14T16:39:07.737Z,8.73
2023-03-14T16:41:35.552Z,9.00
2023-03-14T16:44:03.472Z,8.87
2023-03-14T16:46:30.962Z,8.82
2023-03-14T16:48:58.607Z,8.77
2023-03-14T16:51:25.694Z,8.81
2023-03-14T16:53:53.720Z,9.16
2023-03-14T16:56:24.773Z,8.95
2023-03-14T16:58:51.915Z,8.81
2023-03-14T17:01:20.229Z,8.83
2023-03-14T17:03:52.149Z,8.29
2023-03-14T17:06:27.952Z,7.28
2023-03-14T17:08:58.470Z,7.10
2023-03-14T17:11:25.878Z,7.19
2023-03-14T17:13:55.345Z,7.37
2023-03-14T17:16:24.935Z,6.81
2023-03-14T17:18:52.111Z,6.63
2023-03-14T17:21:19.244Z,6.64
2023-03-14T17:23:46.439Z,6.95
2023-03-14T17:26:13.870Z,6.34
2023-03-14T17:28:41.515Z,6.72
2023-03-14T17:31:17.381Z,6.80
2023-03-14T17:33:46.615Z,6.72
2023-03-14T17:36:15.806Z,6.54
2023-03-14T17:38:43.366Z,6.68
2023-03-14T17:41:14.089Z,6.57
2023-03-14T17:43:43.820Z,6.55
2023-03-14T17:46:15.295Z,6.75
2023-03-14T17:48:44.827Z,6.52
2023-03-14T17:51:13.351Z,6.79
2023-03-14T17:53:40.640Z,6.40
2023-03-14T17:56:08.569Z,6.39
2023-03-14T17:58:38.873Z,6.50
2023-03-14T18:01:21.778Z,6.38
2023-03-14T18:03:49.377Z,6.68
2023-03-14T18:06:19.839Z,6.36
2023-03-14T18:08:47.648Z,6.51
2023-03-14T18:11:19.424Z,6.57
2023-03-14T18:13:48.891Z,6.49
2023-03-14T18:16:16.292Z,6.44
2023-03-14T18:18:47.750Z,6.32
2023-03-14T18:21:16.742Z,6.15
2023-03-14T18:24:09.106Z,5.72
2023-03-14T18:26:36.127Z,6.13
2023-03-14T18:29:03.346Z,5.98
2023-03-14T18:31:35.143Z,5.87
2023-03-14T18:34:03.074Z,6.11
2023-03-14T18:36:30.613Z,5.88
2023-03-14T18:39:00.671Z,5.93
2023-03-14T18:41:28.639Z,5.47
2023-03-14T18:43:55.759Z,5.84
2023-03-14T18:46:25.965Z,5.13
2023-03-14T18:48:58.553Z,5.41
2023-03-14T18:51:29.138Z,5.31
2023-03-14T18:54:10.843Z,5.42
2023-03-14T18:56:41.319Z,5.32
2023-03-14T18:59:09.801Z,5.45
2023-03-14T19:01:38.262Z,5.48
2023-03-14T19:04:10.475Z,5.37
2023-03-14T19:06:38.589Z,4.90
2023-03-14T19:09:09.416Z,5.00
2023-03-14T19:11:36.845Z,4.67
2023-03-14T19:14:10.134Z,4.96
2023-03-14T19:16:37.802Z,4.82
2023-03-14T19:19:04.835Z,5.07
2023-03-14T19:21:36.411Z,4.97
2023-03-14T19:24:06.721Z,4.88
2023-03-14T19:26:36.349Z,4.91
2023-03-14T19:29:03.300Z,4.05
2023-03-14T19:31:31.514Z,4.06
2023-03-14T19:34:00.154Z,4.32
2023-03-14T19:36:29.676Z,4.05
2023-03-14T19:39:04.039Z,4.04
2023-03-14T19:41:32.454Z,4.75
2023-03-14T19:44:04.337Z,4.51
2023-03-14T19:46:41.910Z,3.91
2023-03-14T19:49:22.840Z,4.13
2023-03-14T19:51:53.656Z,3.56
2023-03-14T19:54:23.296Z,3.80
2023-03-14T19:56:52.597Z,3.22
2023-03-14T19:59:22.065Z,4.26
2023-03-14T20:01:55.327Z,3.31
2023-03-14T20:04:26.746Z,3.73
2023-03-14T20:06:59.471Z,3.67
2023-03-14T20:09:28.880Z,3.85
2023-03-14T20:12:02.050Z,3.87
2023-03-14T20:14:29.708Z,3.85
2023-03-14T20:16:59.564Z,3.91
2023-03-14T20:19:58.382Z,3.86
2023-03-14T20:22:40.540Z,3.87
2023-03-14T20:25:13.063Z,3.93
2023-03-14T20:27:52.504Z,3.68
2023-03-14T20:30:22.027Z,3.71
2023-03-14T20:32:51.395Z,3.50
2023-03-14T20:35:27.484Z,3.80
2023-03-14T20:37:56.251Z,3.32
2023-03-14T20:40:31.517Z,3.05
2023-03-14T20:42:59.282Z,3.25
2023-03-14T20:45:29.923Z,3.84
2023-03-14T20:47:58.345Z,4.09
2023-03-14T20:50:27.448Z,3.42
2023-03-14T20:52:54.812Z,3.43
2023-03-14T20:55:22.855Z,3.15
2023-03-14T20:57:51.107Z,2.31
2023-03-14T21:00:28.934Z,2.74
2023-03-14T21:03:11.789Z,2.75
2023-03-14T21:05:43.062Z,2.91
2023-03-14T21:08:13.768Z,2.97
2023-03-14T21:10:41.564Z,2.97
2023-03-14T21:13:11.356Z,2.77
2023-03-14T21:15:38.551Z,2.80
2023-03-14T21:18:07.934Z,2.34
2023-03-14T21:20:37.124Z,2.88
2023-03-14T21:23:05.659Z,2.39
2023-03-14T21:25:35.617Z,3.10
2023-03-14T21:28:05.736Z,3.35
2023-03-14T21:30:34.765Z,3.72
2023-03-14T21:33:02.669Z,2.56
2023-03-14T21:35:32.310Z,2.90
2023-03-14T21:37:59.819Z,2.72
2023-03-14T21:40:28.647Z,2.89
2023-03-14T21:42:55.546Z,3.25
2023-03-14T21:45:27.462Z,2.62
2023-03-14T21:47:56.314Z,2.70
2023-03-14T21:50:26.455Z,2.79
2023-03-14T21:52:56.952Z,2.88
2023-03-14T21:55:28.093Z,3.37
2023-03-14T21:58:03.451Z,2.49
2023-03-14T22:00:36.839Z,2.87
2023-03-14T22:03:12.918Z,3.38
2023-03-14T22:05:44.989Z,3.06
2023-03-14T22:08:18.338Z,2.99
2023-03-14T22:10:50.855Z,2.60
2023-03-14T22:13:19.186Z,3.07
2023-03-14T22:15:48.466Z,3.27
2023-03-14T22:18:17.606Z,3.36
2023-03-14T22:20:45.170Z,3.03
2023-03-14T22:23:13.571Z,3.21
2023-03-14T22:25:49.587Z,2.65
2023-03-14T22:28:18.695Z,2.52
2023-03-14T22:30:50.502Z,2.89
2023-03-14T22:33:19.105Z,2.43
2023-03-14T22:35:52.950Z,2.75
2023-03-14T22:38:20.180Z,3.02
2023-03-14T22:40:49.420Z,2.11
2023-03-14T22:43:16.629Z,2.54
2023-03-14T22:45:44.001Z,2.32
2023-03-14T22:48:11.251Z,2.52
2023-03-14T22:50:40.449Z,2.79
2023-03-14T22:53:09.584Z,2.28
2023-03-14T22:55:37.709Z,2.25
2023-03-14T22:58:05.290Z,2.35
2023-03-14T23:00:33.922Z,2.63
2023-03-14T23:03:01.340Z,1.96
2023-03-14T23:05:30.506Z,1.95
2023-03-14T23:07:57.903Z,3.08
2023-03-14T23:10:26.026Z,2.24
2023-03-14T23:12:57.883Z,2.93
2023-03-14T23:15:26.026Z,2.10
2023-03-14T23:17:54.280Z,2.61
2023-03-14T23:20:22.444Z,2.64
2023-03-14T23:22:51.114Z,3.10
2023-03-14T23:25:22.058Z,2.71
2023-03-14T23:27:54.575Z,2.80
2023-03-14T23:30:22.112Z,2.58
2023-03-14T23:32:49.670Z,3.01
2023-03-14T23:35:18.651Z,3.49
2023-03-14T23:37:45.545Z,3.77
2023-03-14T23:40:12.614Z,3.91
2023-03-14T23:42:41.298Z,3.71
2023-03-14T23:45:18.044Z,3.14
2023-03-14T23:47:45.282Z,3.27
2023-03-14T23:50:12.896Z,3.86
2023-03-14T23:52:40.394Z,3.78
2023-03-14T23:55:08.857Z,3.76
2023-03-14T23:57:35.947Z,3.26
